KAOH/AOH METAR and TAF weather

Enter ICAO airport designator
Station Type Date Time Source
KAOH METAR 2020/01/22 14:53 UTC NOAA

KAOH 221453Z AUTO 19009KT 10SM CLR M04/M09 A3036 RMK AO2 SLP296 T10441089 53001


Station Type Date Time Source
KAOH Decoded METAR 2020/01/22 14:53 UTC NOAA

LIMA ALLEN COUNTY AIRPORT, OH, United States (KAOH) 40-42N 84-01W 296M
Jan 22, 2020 - 09:53 AM EST / 2020.01.22 1453 UTC
Wind: from the S (190 degrees) at 10 MPH (9 KT):0
Visibility: 10 mile(s):0
Sky conditions: clear
Temperature: 24.1 F (-4.4 C)
Windchill: 14 F (-10 C):1
Dew Point: 16.0 F (-8.9 C)
Relative Humidity: 70%
Pressure (altimeter): 30.36 in. Hg (1028 hPa)
Pressure tendency: 0.00 inches (0.1 hPa) higher than three hours ago
ob: KAOH 221453Z AUTO 19009KT 10SM CLR M04/M09 A3036 RMK AO2 SLP296 T10441089 53001
cycle: 15

Station Type Date Time Source
KAOH TAF UTC NOAA

Error!

Example: see airport list